sensor_id;sensor_type;location;lat;lon;timestamp;P1;durP1;ratioP1;P2;durP2;ratioP2
55465;SDS011;41329;41.594;23.810;2023-10-08T00:02:24;9.07;;;8.40;;
55465;SDS011;41329;41.594;23.810;2023-10-08T00:04:50;9.70;;;8.82;;
55465;SDS011;41329;41.594;23.810;2023-10-08T00:07:19;8.43;;;7.70;;
55465;SDS011;41329;41.594;23.810;2023-10-08T00:09:46;8.13;;;7.43;;
55465;SDS011;41329;41.594;23.810;2023-10-08T00:12:13;8.82;;;8.13;;
55465;SDS011;41329;41.594;23.810;2023-10-08T00:14:38;8.68;;;8.05;;
55465;SDS011;41329;41.594;23.810;2023-10-08T00:17:10;9.20;;;8.50;;
55465;SDS011;41329;41.594;23.810;2023-10-08T00:19:36;8.57;;;7.85;;
55465;SDS011;41329;41.594;23.810;2023-10-08T00:22:03;7.77;;;7.17;;
55465;SDS011;41329;41.594;23.810;2023-10-08T00:24:31;8.53;;;7.93;;
55465;SDS011;41329;41.594;23.810;2023-10-08T00:26:58;9.32;;;8.60;;
55465;SDS011;41329;41.594;23.810;2023-10-08T00:29:25;7.75;;;7.10;;
55465;SDS011;41329;41.594;23.810;2023-10-08T00:31:51;8.73;;;7.83;;
55465;SDS011;41329;41.594;23.810;2023-10-08T00:34:17;8.15;;;7.35;;
55465;SDS011;41329;41.594;23.810;2023-10-08T00:36:45;7.53;;;6.93;;
55465;SDS011;41329;41.594;23.810;2023-10-08T00:39:13;9.27;;;8.43;;
55465;SDS011;41329;41.594;23.810;2023-10-08T00:41:42;8.33;;;7.73;;
55465;SDS011;41329;41.594;23.810;2023-10-08T00:44:09;8.80;;;7.90;;
55465;SDS011;41329;41.594;23.810;2023-10-08T00:46:48;7.18;;;6.68;;
55465;SDS011;41329;41.594;23.810;2023-10-08T00:49:22;8.00;;;7.40;;
55465;SDS011;41329;41.594;23.810;2023-10-08T00:51:58;9.30;;;8.60;;
55465;SDS011;41329;41.594;23.810;2023-10-08T00:54:34;19.80;;;18.33;;
55465;SDS011;41329;41.594;23.810;2023-10-08T00:57:16;16.57;;;15.40;;
55465;SDS011;41329;41.594;23.810;2023-10-08T00:59:45;11.77;;;10.97;;
55465;SDS011;41329;41.594;23.810;2023-10-08T01:02:17;10.60;;;9.80;;
55465;SDS011;41329;41.594;23.810;2023-10-08T01:04:46;10.47;;;9.77;;
55465;SDS011;41329;41.594;23.810;2023-10-08T01:07:12;9.77;;;9.03;;
55465;SDS011;41329;41.594;23.810;2023-10-08T01:09:43;10.13;;;9.43;;
55465;SDS011;41329;41.594;23.810;2023-10-08T02:03:46;8.77;;;8.00;;
55465;SDS011;41329;41.594;23.810;2023-10-08T02:06:13;8.97;;;8.27;;
55465;SDS011;41329;41.594;23.810;2023-10-08T02:08:38;9.73;;;9.03;;
55465;SDS011;41329;41.594;23.810;2023-10-08T02:11:03;9.23;;;8.53;;
55465;SDS011;41329;41.594;23.810;2023-10-08T02:13:29;9.03;;;8.33;;
55465;SDS011;41329;41.594;23.810;2023-10-08T02:15:55;9.27;;;8.40;;
55465;SDS011;41329;41.594;23.810;2023-10-08T02:18:21;9.10;;;8.50;;
55465;SDS011;41329;41.594;23.810;2023-10-08T02:20:48;8.77;;;8.17;;
55465;SDS011;41329;41.594;23.810;2023-10-08T02:23:14;11.00;;;8.33;;
55465;SDS011;41329;41.594;23.810;2023-10-08T02:25:39;11.00;;;8.60;;
55465;SDS011;41329;41.594;23.810;2023-10-08T02:28:08;9.20;;;8.40;;
55465;SDS011;41329;41.594;23.810;2023-10-08T02:30:36;8.53;;;7.93;;
55465;SDS011;41329;41.594;23.810;2023-10-08T02:33:04;9.25;;;8.55;;
55465;SDS011;41329;41.594;23.810;2023-10-08T02:35:42;8.47;;;7.70;;
55465;SDS011;41329;41.594;23.810;2023-10-08T02:38:09;9.83;;;9.03;;
55465;SDS011;41329;41.594;23.810;2023-10-08T02:40:43;9.50;;;8.60;;
55465;SDS011;41329;41.594;23.810;2023-10-08T02:43:13;9.00;;;8.40;;
55465;SDS011;41329;41.594;23.810;2023-10-08T02:45:42;8.93;;;8.05;;
55465;SDS011;41329;41.594;23.810;2023-10-08T02:48:12;8.27;;;7.60;;
55465;SDS011;41329;41.594;23.810;2023-10-08T02:50:41;8.90;;;7.90;;
55465;SDS011;41329;41.594;23.810;2023-10-08T02:53:12;8.57;;;7.97;;
55465;SDS011;41329;41.594;23.810;2023-10-08T02:55:43;9.43;;;8.52;;
55465;SDS011;41329;41.594;23.810;2023-10-08T02:58:12;8.73;;;8.13;;
55465;SDS011;41329;41.594;23.810;2023-10-08T03:00:44;8.47;;;7.87;;
55465;SDS011;41329;41.594;23.810;2023-10-08T03:03:12;8.67;;;7.93;;
55465;SDS011;41329;41.594;23.810;2023-10-08T03:05:44;8.23;;;7.63;;
55465;SDS011;41329;41.594;23.810;2023-10-08T03:08:11;8.93;;;8.27;;
55465;SDS011;41329;41.594;23.810;2023-10-08T03:10:45;8.43;;;7.73;;
55465;SDS011;41329;41.594;23.810;2023-10-08T03:13:14;8.40;;;7.83;;
55465;SDS011;41329;41.594;23.810;2023-10-08T03:15:43;8.77;;;7.97;;
55465;SDS011;41329;41.594;23.810;2023-10-08T03:18:22;8.57;;;7.97;;
55465;SDS011;41329;41.594;23.810;2023-10-08T03:20:48;8.93;;;8.33;;
55465;SDS011;41329;41.594;23.810;2023-10-08T03:23:14;9.10;;;8.17;;
55465;SDS011;41329;41.594;23.810;2023-10-08T03:25:59;8.27;;;7.67;;
55465;SDS011;41329;41.594;23.810;2023-10-08T03:28:53;8.47;;;7.70;;
55465;SDS011;41329;41.594;23.810;2023-10-08T03:31:22;8.07;;;7.57;;
55465;SDS011;41329;41.594;23.810;2023-10-08T03:34:08;8.37;;;7.30;;
55465;SDS011;41329;41.594;23.810;2023-10-08T03:36:37;8.50;;;7.90;;
55465;SDS011;41329;41.594;23.810;2023-10-08T03:39:09;9.03;;;8.13;;
55465;SDS011;41329;41.594;23.810;2023-10-08T03:41:38;8.53;;;7.93;;
55465;SDS011;41329;41.594;23.810;2023-10-08T03:44:05;8.93;;;8.23;;
55465;SDS011;41329;41.594;23.810;2023-10-08T03:46:37;7.70;;;7.20;;
55465;SDS011;41329;41.594;23.810;2023-10-08T03:49:08;8.48;;;7.75;;
55465;SDS011;41329;41.594;23.810;2023-10-08T03:51:50;8.97;;;7.93;;
55465;SDS011;41329;41.594;23.810;2023-10-08T03:54:20;8.70;;;8.10;;
55465;SDS011;41329;41.594;23.810;2023-10-08T03:56:55;8.67;;;8.07;;
55465;SDS011;41329;41.594;23.810;2023-10-08T03:59:21;12.87;;;7.97;;
55465;SDS011;41329;41.594;23.810;2023-10-08T04:01:58;8.63;;;8.10;;
55465;SDS011;41329;41.594;23.810;2023-10-08T04:04:38;8.67;;;7.93;;
55465;SDS011;41329;41.594;23.810;2023-10-08T04:07:17;8.50;;;7.80;;
55465;SDS011;41329;41.594;23.810;2023-10-08T04:09:50;8.87;;;8.07;;
55465;SDS011;41329;41.594;23.810;2023-10-08T04:12:24;8.30;;;7.60;;
55465;SDS011;41329;41.594;23.810;2023-10-08T04:14:52;8.30;;;7.60;;
55465;SDS011;41329;41.594;23.810;2023-10-08T04:17:20;7.87;;;7.13;;
55465;SDS011;41329;41.594;23.810;2023-10-08T04:19:47;8.47;;;7.77;;
55465;SDS011;41329;41.594;23.810;2023-10-08T04:22:13;8.57;;;7.97;;
55465;SDS011;41329;41.594;23.810;2023-10-08T04:24:41;7.57;;;7.07;;
55465;SDS011;41329;41.594;23.810;2023-10-08T04:27:08;7.93;;;7.33;;
55465;SDS011;41329;41.594;23.810;2023-10-08T04:29:34;8.10;;;7.40;;
55465;SDS011;41329;41.594;23.810;2023-10-08T04:32:02;7.47;;;6.97;;
55465;SDS011;41329;41.594;23.810;2023-10-08T04:34:37;8.43;;;7.53;;
55465;SDS011;41329;41.594;23.810;2023-10-08T04:37:02;8.43;;;7.83;;
55465;SDS011;41329;41.594;23.810;2023-10-08T04:39:38;8.53;;;7.93;;
55465;SDS011;41329;41.594;23.810;2023-10-08T04:42:06;9.93;;;8.73;;
55465;SDS011;41329;41.594;23.810;2023-10-08T04:44:50;8.47;;;7.77;;
55465;SDS011;41329;41.594;23.810;2023-10-08T04:47:17;9.10;;;8.43;;
55465;SDS011;41329;41.594;23.810;2023-10-08T04:52:23;8.60;;;7.80;;
55465;SDS011;41329;41.594;23.810;2023-10-08T04:54:50;13.37;;;8.67;;
55465;SDS011;41329;41.594;23.810;2023-10-08T04:57:16;9.67;;;7.93;;
55465;SDS011;41329;41.594;23.810;2023-10-08T04:59:43;10.20;;;9.20;;
55465;SDS011;41329;41.594;23.810;2023-10-08T05:02:11;9.63;;;8.60;;
55465;SDS011;41329;41.594;23.810;2023-10-08T05:05:06;8.73;;;8.13;;
55465;SDS011;41329;41.594;23.810;2023-10-08T05:07:34;12.53;;;9.20;;
55465;SDS011;41329;41.594;23.810;2023-10-08T05:10:15;9.37;;;8.23;;
55465;SDS011;41329;41.594;23.810;2023-10-08T05:12:49;8.60;;;7.90;;
55465;SDS011;41329;41.594;23.810;2023-10-08T05:15:30;9.87;;;8.97;;
55465;SDS011;41329;41.594;23.810;2023-10-08T05:18:02;9.03;;;8.43;;
55465;SDS011;41329;41.594;23.810;2023-10-08T05:20:37;10.27;;;8.97;;
55465;SDS011;41329;41.594;23.810;2023-10-08T05:23:16;10.43;;;9.77;;
55465;SDS011;41329;41.594;23.810;2023-10-08T05:25:49;11.83;;;10.90;;
55465;SDS011;41329;41.594;23.810;2023-10-08T05:28:23;10.83;;;10.07;;
55465;SDS011;41329;41.594;23.810;2023-10-08T05:30:53;13.18;;;12.18;;
55465;SDS011;41329;41.594;23.810;2023-10-08T05:33:20;13.47;;;12.37;;
55465;SDS011;41329;41.594;23.810;2023-10-08T05:36:11;14.43;;;13.20;;
55465;SDS011;41329;41.594;23.810;2023-10-08T05:38:43;13.93;;;12.80;;
55465;SDS011;41329;41.594;23.810;2023-10-08T05:41:24;12.80;;;11.87;;
55465;SDS011;41329;41.594;23.810;2023-10-08T05:43:53;13.73;;;12.63;;
55465;SDS011;41329;41.594;23.810;2023-10-08T05:46:37;13.60;;;12.27;;
55465;SDS011;41329;41.594;23.810;2023-10-08T05:49:16;11.90;;;10.93;;
55465;SDS011;41329;41.594;23.810;2023-10-08T05:52:01;12.97;;;11.87;;
55465;SDS011;41329;41.594;23.810;2023-10-08T05:54:26;13.07;;;12.13;;
55465;SDS011;41329;41.594;23.810;2023-10-08T05:56:54;12.23;;;11.20;;
55465;SDS011;41329;41.594;23.810;2023-10-08T05:59:45;13.80;;;12.37;;
55465;SDS011;41329;41.594;23.810;2023-10-08T06:02:21;12.77;;;11.73;;
55465;SDS011;41329;41.594;23.810;2023-10-08T06:04:53;12.33;;;11.33;;
55465;SDS011;41329;41.594;23.810;2023-10-08T06:07:51;9.80;;;9.03;;
55465;SDS011;41329;41.594;23.810;2023-10-08T06:10:18;10.63;;;9.93;;
55465;SDS011;41329;41.594;23.810;2023-10-08T06:15:39;13.03;;;11.87;;
55465;SDS011;41329;41.594;23.810;2023-10-08T06:18:24;18.50;;;14.13;;
55465;SDS011;41329;41.594;23.810;2023-10-08T06:20:53;12.83;;;11.83;;
55465;SDS011;41329;41.594;23.810;2023-10-08T06:23:26;13.50;;;12.30;;
55465;SDS011;41329;41.594;23.810;2023-10-08T06:25:56;14.07;;;11.73;;
55465;SDS011;41329;41.594;23.810;2023-10-08T06:28:24;13.10;;;11.87;;
55465;SDS011;41329;41.594;23.810;2023-10-08T06:30:54;14.17;;;11.60;;
55465;SDS011;41329;41.594;23.810;2023-10-08T06:33:21;15.68;;;12.23;;
55465;SDS011;41329;41.594;23.810;2023-10-08T06:35:51;11.53;;;10.73;;
55465;SDS011;41329;41.594;23.810;2023-10-08T06:38:35;18.80;;;14.70;;
55465;SDS011;41329;41.594;23.810;2023-10-08T06:41:01;16.00;;;11.43;;
55465;SDS011;41329;41.594;23.810;2023-10-08T06:43:55;14.07;;;10.53;;
55465;SDS011;41329;41.594;23.810;2023-10-08T06:46:39;11.73;;;10.63;;
55465;SDS011;41329;41.594;23.810;2023-10-08T06:49:06;11.70;;;10.70;;
55465;SDS011;41329;41.594;23.810;2023-10-08T06:51:36;12.10;;;11.00;;
55465;SDS011;41329;41.594;23.810;2023-10-08T06:54:02;11.47;;;9.70;;
55465;SDS011;41329;41.594;23.810;2023-10-08T06:56:29;11.73;;;10.63;;
55465;SDS011;41329;41.594;23.810;2023-10-08T06:58:56;11.80;;;10.90;;
55465;SDS011;41329;41.594;23.810;2023-10-08T07:01:24;12.83;;;11.60;;
55465;SDS011;41329;41.594;23.810;2023-10-08T07:03:53;14.57;;;11.40;;
55465;SDS011;41329;41.594;23.810;2023-10-08T07:06:28;11.77;;;10.87;;
55465;SDS011;41329;41.594;23.810;2023-10-08T07:08:57;12.33;;;11.13;;
55465;SDS011;41329;41.594;23.810;2023-10-08T07:11:24;13.37;;;12.00;;
55465;SDS011;41329;41.594;23.810;2023-10-08T07:13:51;10.77;;;9.97;;
55465;SDS011;41329;41.594;23.810;2023-10-08T07:16:17;11.07;;;9.97;;
55465;SDS011;41329;41.594;23.810;2023-10-08T07:18:44;10.77;;;9.67;;
55465;SDS011;41329;41.594;23.810;2023-10-08T07:21:23;10.40;;;9.60;;
55465;SDS011;41329;41.594;23.810;2023-10-08T07:23:55;11.13;;;9.17;;
55465;SDS011;41329;41.594;23.810;2023-10-08T07:26:27;9.68;;;8.70;;
55465;SDS011;41329;41.594;23.810;2023-10-08T07:29:06;7.63;;;6.97;;
55465;SDS011;41329;41.594;23.810;2023-10-08T07:31:37;8.07;;;7.27;;
55465;SDS011;41329;41.594;23.810;2023-10-08T07:34:13;5.97;;;5.55;;
55465;SDS011;41329;41.594;23.810;2023-10-08T07:36:51;6.45;;;5.93;;
55465;SDS011;41329;41.594;23.810;2023-10-08T07:39:18;6.63;;;6.05;;
55465;SDS011;41329;41.594;23.810;2023-10-08T07:41:58;5.97;;;5.47;;
55465;SDS011;41329;41.594;23.810;2023-10-08T07:44:33;7.25;;;6.65;;
55465;SDS011;41329;41.594;23.810;2023-10-08T07:49:36;5.32;;;4.93;;
55465;SDS011;41329;41.594;23.810;2023-10-08T07:52:02;5.68;;;5.18;;
55465;SDS011;41329;41.594;23.810;2023-10-08T07:54:31;6.60;;;6.10;;
55465;SDS011;41329;41.594;23.810;2023-10-08T07:57:00;5.28;;;4.82;;
55465;SDS011;41329;41.594;23.810;2023-10-08T07:59:40;5.22;;;4.78;;
55465;SDS011;41329;41.594;23.810;2023-10-08T08:02:07;5.68;;;5.22;;
55465;SDS011;41329;41.594;23.810;2023-10-08T08:04:42;10.55;;;5.35;;
55465;SDS011;41329;41.594;23.810;2023-10-08T08:07:09;5.40;;;5.00;;
55465;SDS011;41329;41.594;23.810;2023-10-08T08:09:44;5.53;;;5.07;;
55465;SDS011;41329;41.594;23.810;2023-10-08T08:12:17;4.57;;;4.20;;
55465;SDS011;41329;41.594;23.810;2023-10-08T08:14:44;4.65;;;4.25;;
55465;SDS011;41329;41.594;23.810;2023-10-08T08:17:10;5.80;;;5.32;;
55465;SDS011;41329;41.594;23.810;2023-10-08T08:19:42;4.90;;;4.50;;
55465;SDS011;41329;41.594;23.810;2023-10-08T08:22:18;6.38;;;5.15;;
55465;SDS011;41329;41.594;23.810;2023-10-08T08:24:47;5.82;;;5.32;;
55465;SDS011;41329;41.594;23.810;2023-10-08T08:27:18;5.43;;;4.60;;
55465;SDS011;41329;41.594;23.810;2023-10-08T08:29:51;5.30;;;4.90;;
55465;SDS011;41329;41.594;23.810;2023-10-08T08:32:20;4.47;;;4.13;;
55465;SDS011;41329;41.594;23.810;2023-10-08T08:34:49;4.47;;;4.18;;
55465;SDS011;41329;41.594;23.810;2023-10-08T08:37:17;4.93;;;4.53;;
55465;SDS011;41329;41.594;23.810;2023-10-08T08:39:43;5.15;;;4.75;;
55465;SDS011;41329;41.594;23.810;2023-10-08T08:42:08;5.00;;;4.50;;
55465;SDS011;41329;41.594;23.810;2023-10-08T08:44:38;4.85;;;4.35;;
55465;SDS011;41329;41.594;23.810;2023-10-08T08:47:12;4.63;;;4.32;;
55465;SDS011;41329;41.594;23.810;2023-10-08T08:49:43;4.47;;;3.75;;
55465;SDS011;41329;41.594;23.810;2023-10-08T08:52:10;5.93;;;4.63;;
55465;SDS011;41329;41.594;23.810;2023-10-08T08:54:37;4.82;;;4.13;;
55465;SDS011;41329;41.594;23.810;2023-10-08T08:57:04;4.60;;;4.18;;
55465;SDS011;41329;41.594;23.810;2023-10-08T08:59:31;4.00;;;3.70;;
55465;SDS011;41329;41.594;23.810;2023-10-08T09:01:58;4.32;;;3.92;;
55465;SDS011;41329;41.594;23.810;2023-10-08T09:04:29;4.32;;;3.92;;
55465;SDS011;41329;41.594;23.810;2023-10-08T09:06:56;4.40;;;4.03;;
55465;SDS011;41329;41.594;23.810;2023-10-08T09:09:29;5.95;;;5.38;;
55465;SDS011;41329;41.594;23.810;2023-10-08T09:11:56;5.30;;;4.90;;
55465;SDS011;41329;41.594;23.810;2023-10-08T09:14:23;5.03;;;4.57;;
55465;SDS011;41329;41.594;23.810;2023-10-08T09:16:52;4.63;;;4.30;;
55465;SDS011;41329;41.594;23.810;2023-10-08T09:19:21;4.40;;;3.93;;
55465;SDS011;41329;41.594;23.810;2023-10-08T09:22:02;5.05;;;4.65;;
55465;SDS011;41329;41.594;23.810;2023-10-08T09:24:36;4.25;;;3.95;;
55465;SDS011;41329;41.594;23.810;2023-10-08T09:27:06;4.90;;;4.53;;
55465;SDS011;41329;41.594;23.810;2023-10-08T09:29:33;5.13;;;4.10;;
55465;SDS011;41329;41.594;23.810;2023-10-08T09:32:05;4.63;;;4.22;;
55465;SDS011;41329;41.594;23.810;2023-10-08T09:34:31;4.40;;;3.75;;
55465;SDS011;41329;41.594;23.810;2023-10-08T09:36:58;4.03;;;3.72;;
55465;SDS011;41329;41.594;23.810;2023-10-08T09:39:28;4.53;;;3.50;;
55465;SDS011;41329;41.594;23.810;2023-10-08T09:41:59;3.95;;;3.65;;
55465;SDS011;41329;41.594;23.810;2023-10-08T09:44:27;4.32;;;3.17;;
55465;SDS011;41329;41.594;23.810;2023-10-08T09:47:03;3.45;;;3.15;;
55465;SDS011;41329;41.594;23.810;2023-10-08T09:49:31;5.28;;;3.03;;
55465;SDS011;41329;41.594;23.810;2023-10-08T09:52:01;3.75;;;3.45;;
55465;SDS011;41329;41.594;23.810;2023-10-08T09:54:31;4.40;;;3.97;;
55465;SDS011;41329;41.594;23.810;2023-10-08T09:57:03;3.75;;;3.45;;
55465;SDS011;41329;41.594;23.810;2023-10-08T09:59:31;3.63;;;3.33;;
55465;SDS011;41329;41.594;23.810;2023-10-08T10:01:59;3.97;;;3.58;;
55465;SDS011;41329;41.594;23.810;2023-10-08T10:04:25;4.53;;;3.40;;
55465;SDS011;41329;41.594;23.810;2023-10-08T10:06:53;3.92;;;3.58;;
55465;SDS011;41329;41.594;23.810;2023-10-08T10:09:23;3.75;;;3.40;;
55465;SDS011;41329;41.594;23.810;2023-10-08T10:11:50;3.53;;;2.95;;
55465;SDS011;41329;41.594;23.810;2023-10-08T10:14:17;3.22;;;2.92;;
55465;SDS011;41329;41.594;23.810;2023-10-08T10:16:48;3.28;;;3.00;;
55465;SDS011;41329;41.594;23.810;2023-10-08T10:19:34;3.35;;;3.15;;
55465;SDS011;41329;41.594;23.810;2023-10-08T10:22:01;3.55;;;3.25;;
55465;SDS011;41329;41.594;23.810;2023-10-08T10:24:32;3.83;;;3.53;;
55465;SDS011;41329;41.594;23.810;2023-10-08T10:27:13;4.35;;;3.95;;
55465;SDS011;41329;41.594;23.810;2023-10-08T10:29:40;5.05;;;3.45;;
55465;SDS011;41329;41.594;23.810;2023-10-08T10:32:09;8.68;;;7.97;;
55465;SDS011;41329;41.594;23.810;2023-10-08T10:34:38;5.85;;;5.30;;
55465;SDS011;41329;41.594;23.810;2023-10-08T10:37:04;4.38;;;4.07;;
55465;SDS011;41329;41.594;23.810;2023-10-08T10:39:54;3.15;;;2.88;;
55465;SDS011;41329;41.594;23.810;2023-10-08T10:42:24;6.85;;;6.35;;
55465;SDS011;41329;41.594;23.810;2023-10-08T10:44:51;12.27;;;11.02;;
55465;SDS011;41329;41.594;23.810;2023-10-08T10:47:18;14.73;;;13.30;;
55465;SDS011;41329;41.594;23.810;2023-10-08T10:49:51;10.82;;;9.73;;
55465;SDS011;41329;41.594;23.810;2023-10-08T10:52:26;13.60;;;12.00;;
55465;SDS011;41329;41.594;23.810;2023-10-08T10:55:19;10.48;;;9.50;;
55465;SDS011;41329;41.594;23.810;2023-10-08T10:57:56;8.10;;;7.50;;
55465;SDS011;41329;41.594;23.810;2023-10-08T11:00:42;6.20;;;5.80;;
55465;SDS011;41329;41.594;23.810;2023-10-08T11:03:08;5.88;;;5.47;;
55465;SDS011;41329;41.594;23.810;2023-10-08T11:05:49;4.93;;;4.43;;
55465;SDS011;41329;41.594;23.810;2023-10-08T11:08:19;4.10;;;3.80;;
55465;SDS011;41329;41.594;23.810;2023-10-08T11:10:48;4.30;;;3.95;;
55465;SDS011;41329;41.594;23.810;2023-10-08T11:13:17;3.80;;;3.50;;
55465;SDS011;41329;41.594;23.810;2023-10-08T11:15:45;4.55;;;4.15;;
55465;SDS011;41329;41.594;23.810;2023-10-08T11:18:22;3.40;;;3.10;;
55465;SDS011;41329;41.594;23.810;2023-10-08T11:20:49;4.03;;;3.60;;
55465;SDS011;41329;41.594;23.810;2023-10-08T11:23:31;3.33;;;3.13;;
55465;SDS011;41329;41.594;23.810;2023-10-08T11:26:01;2.67;;;2.47;;
55465;SDS011;41329;41.594;23.810;2023-10-08T11:28:35;3.20;;;2.90;;
55465;SDS011;41329;41.594;23.810;2023-10-08T11:31:07;2.97;;;2.78;;
55465;SDS011;41329;41.594;23.810;2023-10-08T11:33:39;3.33;;;3.13;;
55465;SDS011;41329;41.594;23.810;2023-10-08T11:36:16;3.80;;;3.50;;
55465;SDS011;41329;41.594;23.810;2023-10-08T11:38:47;3.90;;;3.60;;
55465;SDS011;41329;41.594;23.810;2023-10-08T11:41:16;3.22;;;2.92;;
55465;SDS011;41329;41.594;23.810;2023-10-08T11:43:53;3.35;;;3.15;;
55465;SDS011;41329;41.594;23.810;2023-10-08T11:48:51;2.72;;;2.53;;
55465;SDS011;41329;41.594;23.810;2023-10-08T11:51:16;3.13;;;2.75;;
55465;SDS011;41329;41.594;23.810;2023-10-08T11:53:45;3.08;;;2.80;;
55465;SDS011;41329;41.594;23.810;2023-10-08T11:56:13;3.65;;;2.85;;
55465;SDS011;41329;41.594;23.810;2023-10-08T11:58:40;2.60;;;2.40;;
55465;SDS011;41329;41.594;23.810;2023-10-08T12:01:09;2.90;;;2.70;;
55465;SDS011;41329;41.594;23.810;2023-10-08T12:03:44;2.92;;;2.72;;
55465;SDS011;41329;41.594;23.810;2023-10-08T12:06:13;3.00;;;2.67;;
55465;SDS011;41329;41.594;23.810;2023-10-08T12:08:43;2.70;;;2.50;;
55465;SDS011;41329;41.594;23.810;2023-10-08T12:11:12;2.70;;;2.47;;
55465;SDS011;41329;41.594;23.810;2023-10-08T12:13:39;2.05;;;1.95;;
55465;SDS011;41329;41.594;23.810;2023-10-08T12:16:10;2.70;;;2.50;;
55465;SDS011;41329;41.594;23.810;2023-10-08T12:18:46;4.03;;;2.30;;
55465;SDS011;41329;41.594;23.810;2023-10-08T12:23:58;3.42;;;2.50;;
55465;SDS011;41329;41.594;23.810;2023-10-08T12:26:24;7.25;;;2.85;;
55465;SDS011;41329;41.594;23.810;2023-10-08T12:28:50;2.97;;;2.78;;
55465;SDS011;41329;41.594;23.810;2023-10-08T12:31:18;2.95;;;2.42;;
55465;SDS011;41329;41.594;23.810;2023-10-08T12:33:47;2.80;;;2.58;;
55465;SDS011;41329;41.594;23.810;2023-10-08T12:36:21;2.92;;;2.72;;
55465;SDS011;41329;41.594;23.810;2023-10-08T12:38:51;2.92;;;2.17;;
55465;SDS011;41329;41.594;23.810;2023-10-08T12:41:23;2.63;;;2.42;;
55465;SDS011;41329;41.594;23.810;2023-10-08T12:43:56;2.80;;;2.35;;
55465;SDS011;41329;41.594;23.810;2023-10-08T12:46:23;3.03;;;2.67;;
55465;SDS011;41329;41.594;23.810;2023-10-08T12:48:51;2.50;;;2.13;;
55465;SDS011;41329;41.594;23.810;2023-10-08T12:51:19;3.25;;;2.88;;
55465;SDS011;41329;41.594;23.810;2023-10-08T12:53:50;2.83;;;2.00;;
55465;SDS011;41329;41.594;23.810;2023-10-08T12:56:23;3.58;;;2.30;;
55465;SDS011;41329;41.594;23.810;2023-10-08T12:58:56;2.42;;;2.22;;
55465;SDS011;41329;41.594;23.810;2023-10-08T13:01:29;2.20;;;2.00;;
55465;SDS011;41329;41.594;23.810;2023-10-08T13:03:55;2.42;;;2.22;;
55465;SDS011;41329;41.594;23.810;2023-10-08T13:06:26;2.70;;;2.47;;
55465;SDS011;41329;41.594;23.810;2023-10-08T13:08:55;2.40;;;2.20;;
55465;SDS011;41329;41.594;23.810;2023-10-08T13:11:22;2.70;;;2.50;;
55465;SDS011;41329;41.594;23.810;2023-10-08T13:13:52;3.25;;;2.63;;
55465;SDS011;41329;41.594;23.810;2023-10-08T13:16:21;3.25;;;2.67;;
55465;SDS011;41329;41.594;23.810;2023-10-08T13:18:47;3.22;;;2.60;;
55465;SDS011;41329;41.594;23.810;2023-10-08T13:21:13;2.30;;;2.05;;
55465;SDS011;41329;41.594;23.810;2023-10-08T13:23:39;2.90;;;2.70;;
55465;SDS011;41329;41.594;23.810;2023-10-08T13:26:05;3.13;;;2.80;;
55465;SDS011;41329;41.594;23.810;2023-10-08T13:28:32;3.47;;;2.92;;
55465;SDS011;41329;41.594;23.810;2023-10-08T13:30:59;2.80;;;2.42;;
55465;SDS011;41329;41.594;23.810;2023-10-08T13:33:26;9.15;;;8.65;;
55465;SDS011;41329;41.594;23.810;2023-10-08T13:35:51;9.75;;;9.02;;
55465;SDS011;41329;41.594;23.810;2023-10-08T13:38:17;6.15;;;5.00;;
55465;SDS011;41329;41.594;23.810;2023-10-08T13:40:47;5.55;;;4.63;;
55465;SDS011;41329;41.594;23.810;2023-10-08T13:43:34;4.32;;;3.92;;
55465;SDS011;41329;41.594;23.810;2023-10-08T13:46:03;4.10;;;3.63;;
55465;SDS011;41329;41.594;23.810;2023-10-08T13:48:31;3.53;;;3.17;;
55465;SDS011;41329;41.594;23.810;2023-10-08T13:50:58;2.67;;;2.33;;
55465;SDS011;41329;41.594;23.810;2023-10-08T13:53:25;2.88;;;2.42;;
55465;SDS011;41329;41.594;23.810;2023-10-08T13:55:54;3.00;;;2.53;;
55465;SDS011;41329;41.594;23.810;2023-10-08T13:58:21;3.72;;;2.42;;
55465;SDS011;41329;41.594;23.810;2023-10-08T14:00:47;2.97;;;2.65;;
55465;SDS011;41329;41.594;23.810;2023-10-08T14:03:15;7.20;;;4.05;;
55465;SDS011;41329;41.594;23.810;2023-10-08T14:05:46;4.82;;;4.32;;
55465;SDS011;41329;41.594;23.810;2023-10-08T14:08:15;5.25;;;2.95;;
55465;SDS011;41329;41.594;23.810;2023-10-08T14:10:41;6.85;;;6.03;;
55465;SDS011;41329;41.594;23.810;2023-10-08T14:13:08;7.25;;;3.33;;
55465;SDS011;41329;41.594;23.810;2023-10-08T14:15:34;4.53;;;3.15;;
55465;SDS011;41329;41.594;23.810;2023-10-08T14:18:07;6.32;;;3.47;;
55465;SDS011;41329;41.594;23.810;2023-10-08T14:20:33;7.13;;;2.58;;
55465;SDS011;41329;41.594;23.810;2023-10-08T14:22:59;6.35;;;3.50;;
55465;SDS011;41329;41.594;23.810;2023-10-08T14:25:27;4.50;;;3.50;;
55465;SDS011;41329;41.594;23.810;2023-10-08T14:27:58;9.02;;;3.92;;
55465;SDS011;41329;41.594;23.810;2023-10-08T14:30:29;7.53;;;6.00;;
55465;SDS011;41329;41.594;23.810;2023-10-08T14:32:56;8.90;;;3.20;;
55465;SDS011;41329;41.594;23.810;2023-10-08T14:35:23;9.05;;;6.40;;
55465;SDS011;41329;41.594;23.810;2023-10-08T14:38:06;9.02;;;7.32;;
55465;SDS011;41329;41.594;23.810;2023-10-08T14:40:50;8.50;;;4.60;;
55465;SDS011;41329;41.594;23.810;2023-10-08T14:43:34;6.50;;;2.83;;
55465;SDS011;41329;41.594;23.810;2023-10-08T14:46:00;10.38;;;6.75;;
55465;SDS011;41329;41.594;23.810;2023-10-08T14:48:32;10.40;;;6.45;;
55465;SDS011;41329;41.594;23.810;2023-10-08T14:51:00;14.27;;;7.28;;
55465;SDS011;41329;41.594;23.810;2023-10-08T14:53:28;10.90;;;4.22;;
55465;SDS011;41329;41.594;23.810;2023-10-08T14:55:56;9.00;;;4.68;;
55465;SDS011;41329;41.594;23.810;2023-10-08T14:58:22;9.88;;;6.53;;
55465;SDS011;41329;41.594;23.810;2023-10-08T15:00:48;8.32;;;6.43;;
55465;SDS011;41329;41.594;23.810;2023-10-08T15:03:13;11.25;;;6.95;;
55465;SDS011;41329;41.594;23.810;2023-10-08T15:05:39;8.07;;;4.53;;
55465;SDS011;41329;41.594;23.810;2023-10-08T15:08:05;10.10;;;3.40;;
55465;SDS011;41329;41.594;23.810;2023-10-08T15:10:34;10.00;;;5.53;;
55465;SDS011;41329;41.594;23.810;2023-10-08T15:13:00;7.00;;;4.53;;
55465;SDS011;41329;41.594;23.810;2023-10-08T15:15:26;9.48;;;3.42;;
55465;SDS011;41329;41.594;23.810;2023-10-08T15:17:56;9.52;;;3.70;;
55465;SDS011;41329;41.594;23.810;2023-10-08T15:20:22;28.17;;;19.40;;
55465;SDS011;41329;41.594;23.810;2023-10-08T15:22:48;12.32;;;5.03;;
55465;SDS011;41329;41.594;23.810;2023-10-08T15:25:16;5.05;;;2.85;;
55465;SDS011;41329;41.594;23.810;2023-10-08T15:27:42;7.10;;;2.95;;
55465;SDS011;41329;41.594;23.810;2023-10-08T15:30:12;6.28;;;3.15;;
55465;SDS011;41329;41.594;23.810;2023-10-08T15:32:44;9.18;;;2.55;;
55465;SDS011;41329;41.594;23.810;2023-10-08T15:35:11;5.43;;;2.25;;
55465;SDS011;41329;41.594;23.810;2023-10-08T15:37:39;5.70;;;2.78;;
55465;SDS011;41329;41.594;23.810;2023-10-08T15:40:06;6.78;;;2.78;;
55465;SDS011;41329;41.594;23.810;2023-10-08T15:42:35;6.85;;;2.42;;
55465;SDS011;41329;41.594;23.810;2023-10-08T15:45:04;10.65;;;3.40;;
55465;SDS011;41329;41.594;23.810;2023-10-08T15:47:30;4.05;;;2.42;;
55465;SDS011;41329;41.594;23.810;2023-10-08T15:49:57;7.28;;;2.92;;
55465;SDS011;41329;41.594;23.810;2023-10-08T15:52:26;10.80;;;3.05;;
55465;SDS011;41329;41.594;23.810;2023-10-08T15:54:52;8.40;;;2.80;;
55465;SDS011;41329;41.594;23.810;2023-10-08T15:57:18;9.90;;;2.45;;